sensor_id;sensor_type;location;lat;lon;timestamp;P1;durP1;ratioP1;P2;durP2;ratioP2
70247;SDS011;57641;51.416;5.506;2022-08-11T00:00:35;2.70;;;1.85;;
70247;SDS011;57641;51.416;5.506;2022-08-11T00:03:06;3.00;;;2.13;;
70247;SDS011;57641;51.416;5.506;2022-08-11T00:05:53;2.63;;;2.03;;
70247;SDS011;57641;51.416;5.506;2022-08-11T00:08:24;4.05;;;2.17;;
70247;SDS011;57641;51.416;5.506;2022-08-11T00:10:52;4.65;;;2.17;;
70247;SDS011;57641;51.416;5.506;2022-08-11T00:13:20;5.03;;;2.00;;
70247;SDS011;57641;51.416;5.506;2022-08-11T00:15:47;3.92;;;2.10;;
70247;SDS011;57641;51.416;5.506;2022-08-11T00:18:13;4.72;;;2.15;;
70247;SDS011;57641;51.416;5.506;2022-08-11T00:20:41;2.50;;;2.00;;
70247;SDS011;57641;51.416;5.506;2022-08-11T00:23:10;2.50;;;2.13;;
70247;SDS011;57641;51.416;5.506;2022-08-11T00:25:38;2.95;;;1.98;;
70247;SDS011;57641;51.416;5.506;2022-08-11T00:30:57;2.42;;;1.92;;
70247;SDS011;57641;51.416;5.506;2022-08-11T00:33:47;3.38;;;2.25;;
70247;SDS011;57641;51.416;5.506;2022-08-11T00:36:16;2.55;;;2.00;;
70247;SDS011;57641;51.416;5.506;2022-08-11T00:38:44;3.08;;;2.03;;
70247;SDS011;57641;51.416;5.506;2022-08-11T00:53:04;3.45;;;2.55;;
70247;SDS011;57641;51.416;5.506;2022-08-11T01:24:55;2.30;;;2.10;;
70247;SDS011;57641;51.416;5.506;2022-08-11T01:35:20;2.95;;;2.15;;
70247;SDS011;57641;51.416;5.506;2022-08-11T01:48:42;3.20;;;2.10;;
70247;SDS011;57641;51.416;5.506;2022-08-11T01:51:21;2.20;;;2.00;;
70247;SDS011;57641;51.416;5.506;2022-08-11T01:54:27;4.53;;;2.42;;
70247;SDS011;57641;51.416;5.506;2022-08-11T01:59:44;3.47;;;2.15;;
70247;SDS011;57641;51.416;5.506;2022-08-11T02:02:26;4.38;;;2.38;;
70247;SDS011;57641;51.416;5.506;2022-08-11T02:11:08;3.00;;;2.10;;
70247;SDS011;57641;51.416;5.506;2022-08-11T02:23:54;3.60;;;2.60;;
70247;SDS011;57641;51.416;5.506;2022-08-11T02:26:18;3.90;;;2.63;;
70247;SDS011;57641;51.416;5.506;2022-08-11T02:28:59;4.07;;;2.50;;
70247;SDS011;57641;51.416;5.506;2022-08-11T02:31:48;3.55;;;2.40;;
70247;SDS011;57641;51.416;5.506;2022-08-11T02:37:23;2.70;;;2.50;;
70247;SDS011;57641;51.416;5.506;2022-08-11T02:46:00;3.58;;;2.58;;
70247;SDS011;57641;51.416;5.506;2022-08-11T03:00:43;3.30;;;2.53;;
70247;SDS011;57641;51.416;5.506;2022-08-11T03:03:16;4.75;;;2.58;;
70247;SDS011;57641;51.416;5.506;2022-08-11T03:05:59;4.00;;;2.17;;
70247;SDS011;57641;51.416;5.506;2022-08-11T03:08:46;4.93;;;2.70;;
70247;SDS011;57641;51.416;5.506;2022-08-11T03:11:25;3.28;;;2.22;;
70247;SDS011;57641;51.416;5.506;2022-08-11T03:14:15;4.97;;;2.30;;
70247;SDS011;57641;51.416;5.506;2022-08-11T03:20:10;2.97;;;2.22;;
70247;SDS011;57641;51.416;5.506;2022-08-11T03:30:51;2.85;;;2.35;;
70247;SDS011;57641;51.416;5.506;2022-08-11T03:33:26;5.38;;;2.75;;
70247;SDS011;57641;51.416;5.506;2022-08-11T03:36:27;4.65;;;2.63;;
70247;SDS011;57641;51.416;5.506;2022-08-11T03:58:20;4.68;;;2.83;;
70247;SDS011;57641;51.416;5.506;2022-08-11T04:03:56;4.95;;;2.63;;
70247;SDS011;57641;51.416;5.506;2022-08-11T04:09:44;3.78;;;3.00;;
70247;SDS011;57641;51.416;5.506;2022-08-11T04:20:36;5.45;;;3.20;;
70247;SDS011;57641;51.416;5.506;2022-08-11T04:23:49;4.75;;;2.97;;
70247;SDS011;57641;51.416;5.506;2022-08-11T04:50:49;4.05;;;3.10;;
70247;SDS011;57641;51.416;5.506;2022-08-11T04:53:49;4.60;;;3.05;;
70247;SDS011;57641;51.416;5.506;2022-08-11T04:56:43;4.03;;;3.00;;
70247;SDS011;57641;51.416;5.506;2022-08-11T05:11:38;4.55;;;3.13;;
70247;SDS011;57641;51.416;5.506;2022-08-11T05:14:31;4.13;;;2.90;;
70247;SDS011;57641;51.416;5.506;2022-08-11T05:17:38;5.18;;;3.03;;
70247;SDS011;57641;51.416;5.506;2022-08-11T05:20:27;4.00;;;2.83;;
70247;SDS011;57641;51.416;5.506;2022-08-11T05:23:12;5.78;;;3.28;;
70247;SDS011;57641;51.416;5.506;2022-08-11T05:25:59;5.28;;;3.10;;
70247;SDS011;57641;51.416;5.506;2022-08-11T05:28:55;6.30;;;3.45;;
70247;SDS011;57641;51.416;5.506;2022-08-11T05:31:45;4.88;;;3.42;;
70247;SDS011;57641;51.416;5.506;2022-08-11T05:34:50;7.30;;;3.40;;
70247;SDS011;57641;51.416;5.506;2022-08-11T05:40:11;4.13;;;3.15;;
70247;SDS011;57641;51.416;5.506;2022-08-11T05:43:07;4.72;;;3.05;;
70247;SDS011;57641;51.416;5.506;2022-08-11T05:45:57;6.47;;;3.80;;
70247;SDS011;57641;51.416;5.506;2022-08-11T05:48:44;4.72;;;3.10;;
70247;SDS011;57641;51.416;5.506;2022-08-11T05:51:32;5.68;;;3.50;;
70247;SDS011;57641;51.416;5.506;2022-08-11T05:54:18;5.82;;;3.40;;
70247;SDS011;57641;51.416;5.506;2022-08-11T05:57:03;5.85;;;3.30;;
70247;SDS011;57641;51.416;5.506;2022-08-11T05:59:30;4.65;;;3.20;;
70247;SDS011;57641;51.416;5.506;2022-08-11T06:02:00;4.60;;;3.20;;
70247;SDS011;57641;51.416;5.506;2022-08-11T06:04:31;6.13;;;4.00;;
70247;SDS011;57641;51.416;5.506;2022-08-11T06:06:59;5.85;;;3.30;;
70247;SDS011;57641;51.416;5.506;2022-08-11T06:09:34;6.05;;;3.35;;
70247;SDS011;57641;51.416;5.506;2022-08-11T06:12:06;6.10;;;3.30;;
70247;SDS011;57641;51.416;5.506;2022-08-11T06:14:33;6.28;;;3.10;;
70247;SDS011;57641;51.416;5.506;2022-08-11T06:17:05;7.15;;;3.38;;
70247;SDS011;57641;51.416;5.506;2022-08-11T06:19:45;7.70;;;3.80;;
70247;SDS011;57641;51.416;5.506;2022-08-11T06:22:12;6.45;;;3.22;;
70247;SDS011;57641;51.416;5.506;2022-08-11T06:24:55;5.00;;;3.30;;
70247;SDS011;57641;51.416;5.506;2022-08-11T06:27:24;5.85;;;3.40;;
70247;SDS011;57641;51.416;5.506;2022-08-11T06:29:52;7.32;;;4.30;;
70247;SDS011;57641;51.416;5.506;2022-08-11T06:32:19;6.50;;;3.55;;
70247;SDS011;57641;51.416;5.506;2022-08-11T06:37:32;6.75;;;3.50;;
70247;SDS011;57641;51.416;5.506;2022-08-11T06:45:49;6.20;;;3.45;;
70247;SDS011;57641;51.416;5.506;2022-08-11T06:48:22;6.07;;;3.50;;
70247;SDS011;57641;51.416;5.506;2022-08-11T06:50:50;4.80;;;3.47;;
70247;SDS011;57641;51.416;5.506;2022-08-11T06:53:41;7.05;;;3.50;;
70247;SDS011;57641;51.416;5.506;2022-08-11T06:56:33;4.68;;;3.38;;
70247;SDS011;57641;51.416;5.506;2022-08-11T06:59:20;4.97;;;3.38;;
70247;SDS011;57641;51.416;5.506;2022-08-11T07:04:48;5.10;;;3.30;;
70247;SDS011;57641;51.416;5.506;2022-08-11T07:14:02;7.15;;;3.80;;
70247;SDS011;57641;51.416;5.506;2022-08-11T07:16:48;6.38;;;3.50;;
70247;SDS011;57641;51.416;5.506;2022-08-11T07:19:23;5.60;;;3.58;;
70247;SDS011;57641;51.416;5.506;2022-08-11T07:22:10;5.78;;;3.88;;
70247;SDS011;57641;51.416;5.506;2022-08-11T07:27:43;6.22;;;3.50;;
70247;SDS011;57641;51.416;5.506;2022-08-11T07:30:31;5.80;;;3.80;;
70247;SDS011;57641;51.416;5.506;2022-08-11T07:33:01;5.32;;;3.53;;
70247;SDS011;57641;51.416;5.506;2022-08-11T07:37:55;7.95;;;3.72;;
70247;SDS011;57641;51.416;5.506;2022-08-11T07:40:24;6.90;;;3.83;;
70247;SDS011;57641;51.416;5.506;2022-08-11T07:42:51;5.60;;;3.50;;
70247;SDS011;57641;51.416;5.506;2022-08-11T07:45:24;6.43;;;3.50;;
70247;SDS011;57641;51.416;5.506;2022-08-11T07:48:09;7.43;;;3.08;;
70247;SDS011;57641;51.416;5.506;2022-08-11T07:50:56;6.65;;;3.40;;
70247;SDS011;57641;51.416;5.506;2022-08-11T07:53:41;6.83;;;3.53;;
70247;SDS011;57641;51.416;5.506;2022-08-11T07:56:07;6.00;;;3.42;;
70247;SDS011;57641;51.416;5.506;2022-08-11T07:58:34;4.93;;;3.20;;
70247;SDS011;57641;51.416;5.506;2022-08-11T08:01:21;6.75;;;2.78;;
70247;SDS011;57641;51.416;5.506;2022-08-11T08:04:07;4.55;;;2.72;;
70247;SDS011;57641;51.416;5.506;2022-08-11T08:06:55;4.38;;;3.60;;
70247;SDS011;57641;51.416;5.506;2022-08-11T08:09:39;5.20;;;2.90;;
70247;SDS011;57641;51.416;5.506;2022-08-11T08:15:11;5.20;;;3.00;;
70247;SDS011;57641;51.416;5.506;2022-08-11T08:17:58;4.32;;;3.00;;
70247;SDS011;57641;51.416;5.506;2022-08-11T08:20:30;5.78;;;3.13;;
70247;SDS011;57641;51.416;5.506;2022-08-11T08:22:59;5.88;;;3.40;;
70247;SDS011;57641;51.416;5.506;2022-08-11T08:25:33;4.32;;;3.10;;
70247;SDS011;57641;51.416;5.506;2022-08-11T08:28:03;8.02;;;3.10;;
70247;SDS011;57641;51.416;5.506;2022-08-11T08:30:31;5.10;;;2.90;;
70247;SDS011;57641;51.416;5.506;2022-08-11T08:33:21;4.07;;;2.78;;
70247;SDS011;57641;51.416;5.506;2022-08-11T08:35:52;4.70;;;2.90;;
70247;SDS011;57641;51.416;5.506;2022-08-11T08:38:39;4.35;;;2.55;;
70247;SDS011;57641;51.416;5.506;2022-08-11T08:41:06;5.05;;;2.97;;
70247;SDS011;57641;51.416;5.506;2022-08-11T08:43:33;3.33;;;2.60;;
70247;SDS011;57641;51.416;5.506;2022-08-11T08:46:00;3.65;;;2.40;;
70247;SDS011;57641;51.416;5.506;2022-08-11T08:48:28;3.58;;;3.00;;
70247;SDS011;57641;51.416;5.506;2022-08-11T08:50:56;4.82;;;2.83;;
70247;SDS011;57641;51.416;5.506;2022-08-11T08:53:47;3.03;;;2.22;;
70247;SDS011;57641;51.416;5.506;2022-08-11T08:56:15;3.72;;;2.90;;
70247;SDS011;57641;51.416;5.506;2022-08-11T08:58:42;5.07;;;2.90;;
70247;SDS011;57641;51.416;5.506;2022-08-11T09:01:12;4.25;;;2.80;;
70247;SDS011;57641;51.416;5.506;2022-08-11T09:03:40;3.88;;;3.20;;
70247;SDS011;57641;51.416;5.506;2022-08-11T09:06:07;4.43;;;2.67;;
70247;SDS011;57641;51.416;5.506;2022-08-11T09:08:34;5.78;;;2.88;;
70247;SDS011;57641;51.416;5.506;2022-08-11T09:11:01;5.35;;;3.33;;
70247;SDS011;57641;51.416;5.506;2022-08-11T09:13:46;4.88;;;3.03;;
70247;SDS011;57641;51.416;5.506;2022-08-11T09:16:13;6.82;;;3.25;;
70247;SDS011;57641;51.416;5.506;2022-08-11T09:18:40;5.65;;;3.17;;
70247;SDS011;57641;51.416;5.506;2022-08-11T09:21:13;4.18;;;2.67;;
70247;SDS011;57641;51.416;5.506;2022-08-11T09:23:40;6.30;;;3.30;;
70247;SDS011;57641;51.416;5.506;2022-08-11T09:29:31;3.92;;;2.90;;
70247;SDS011;57641;51.416;5.506;2022-08-11T09:31:58;4.28;;;3.15;;
70247;SDS011;57641;51.416;5.506;2022-08-11T09:34:24;3.38;;;2.80;;
70247;SDS011;57641;51.416;5.506;2022-08-11T09:36:51;6.15;;;3.17;;
70247;SDS011;57641;51.416;5.506;2022-08-11T09:39:36;6.05;;;3.45;;
70247;SDS011;57641;51.416;5.506;2022-08-11T09:42:21;4.10;;;2.85;;
70247;SDS011;57641;51.416;5.506;2022-08-11T09:45:09;4.90;;;3.00;;
70247;SDS011;57641;51.416;5.506;2022-08-11T09:47:36;2.90;;;2.60;;
70247;SDS011;57641;51.416;5.506;2022-08-11T09:50:03;2.85;;;2.47;;
70247;SDS011;57641;51.416;5.506;2022-08-11T09:52:31;4.28;;;2.80;;
70247;SDS011;57641;51.416;5.506;2022-08-11T09:55:00;3.00;;;2.53;;
70247;SDS011;57641;51.416;5.506;2022-08-11T09:57:34;4.20;;;2.85;;
70247;SDS011;57641;51.416;5.506;2022-08-11T10:00:27;3.25;;;2.40;;
70247;SDS011;57641;51.416;5.506;2022-08-11T10:02:55;3.28;;;2.75;;
70247;SDS011;57641;51.416;5.506;2022-08-11T10:05:22;3.45;;;2.80;;
70247;SDS011;57641;51.416;5.506;2022-08-11T10:08:08;4.18;;;2.40;;
70247;SDS011;57641;51.416;5.506;2022-08-11T10:10:37;6.90;;;3.17;;
70247;SDS011;57641;51.416;5.506;2022-08-11T10:13:10;4.75;;;2.95;;
70247;SDS011;57641;51.416;5.506;2022-08-11T10:15:47;3.67;;;2.80;;
70247;SDS011;57641;51.416;5.506;2022-08-11T10:18:15;3.05;;;2.63;;
70247;SDS011;57641;51.416;5.506;2022-08-11T10:21:02;3.25;;;2.75;;
70247;SDS011;57641;51.416;5.506;2022-08-11T10:23:34;4.90;;;2.63;;
70247;SDS011;57641;51.416;5.506;2022-08-11T10:26:23;3.97;;;2.42;;
70247;SDS011;57641;51.416;5.506;2022-08-11T10:29:31;4.60;;;2.55;;
70247;SDS011;57641;51.416;5.506;2022-08-11T10:32:22;3.53;;;2.28;;
70247;SDS011;57641;51.416;5.506;2022-08-11T10:35:10;2.85;;;2.45;;
70247;SDS011;57641;51.416;5.506;2022-08-11T10:37:38;5.45;;;2.45;;
70247;SDS011;57641;51.416;5.506;2022-08-11T10:40:07;4.18;;;2.30;;
70247;SDS011;57641;51.416;5.506;2022-08-11T10:42:35;3.35;;;2.20;;
70247;SDS011;57641;51.416;5.506;2022-08-11T10:45:21;4.80;;;2.50;;
70247;SDS011;57641;51.416;5.506;2022-08-11T10:48:07;5.63;;;2.97;;
70247;SDS011;57641;51.416;5.506;2022-08-11T10:50:34;3.35;;;2.60;;
70247;SDS011;57641;51.416;5.506;2022-08-11T10:53:20;4.10;;;2.40;;
70247;SDS011;57641;51.416;5.506;2022-08-11T10:56:07;2.63;;;1.90;;
70247;SDS011;57641;51.416;5.506;2022-08-11T10:58:52;4.40;;;2.25;;
70247;SDS011;57641;51.416;5.506;2022-08-11T11:01:22;3.00;;;2.47;;
70247;SDS011;57641;51.416;5.506;2022-08-11T11:03:50;3.88;;;2.10;;
70247;SDS011;57641;51.416;5.506;2022-08-11T11:09:15;2.80;;;2.08;;
70247;SDS011;57641;51.416;5.506;2022-08-11T11:15:11;3.17;;;2.10;;
70247;SDS011;57641;51.416;5.506;2022-08-11T11:18:06;3.17;;;2.20;;
70247;SDS011;57641;51.416;5.506;2022-08-11T11:23:39;2.38;;;1.95;;
70247;SDS011;57641;51.416;5.506;2022-08-11T11:37:34;4.50;;;2.72;;
70247;SDS011;57641;51.416;5.506;2022-08-11T11:40:12;2.00;;;1.90;;
70247;SDS011;57641;51.416;5.506;2022-08-11T11:42:41;5.53;;;2.38;;
70247;SDS011;57641;51.416;5.506;2022-08-11T11:45:09;2.40;;;2.20;;
70247;SDS011;57641;51.416;5.506;2022-08-11T11:47:39;2.20;;;2.00;;
70247;SDS011;57641;51.416;5.506;2022-08-11T11:50:06;4.70;;;2.42;;
70247;SDS011;57641;51.416;5.506;2022-08-11T11:52:33;3.00;;;2.55;;
70247;SDS011;57641;51.416;5.506;2022-08-11T11:55:00;4.60;;;2.40;;
70247;SDS011;57641;51.416;5.506;2022-08-11T11:57:27;3.95;;;2.25;;
70247;SDS011;57641;51.416;5.506;2022-08-11T12:00:11;2.23;;;2.03;;
70247;SDS011;57641;51.416;5.506;2022-08-11T12:02:57;3.10;;;2.10;;
70247;SDS011;57641;51.416;5.506;2022-08-11T12:05:32;4.05;;;2.25;;
70247;SDS011;57641;51.416;5.506;2022-08-11T12:08:00;2.78;;;2.30;;
70247;SDS011;57641;51.416;5.506;2022-08-11T12:11:20;2.67;;;2.22;;
70247;SDS011;57641;51.416;5.506;2022-08-11T12:13:46;2.25;;;2.03;;
70247;SDS011;57641;51.416;5.506;2022-08-11T12:16:16;2.28;;;1.90;;
70247;SDS011;57641;51.416;5.506;2022-08-11T12:18:46;3.28;;;2.38;;
70247;SDS011;57641;51.416;5.506;2022-08-11T12:21:15;3.85;;;2.55;;
70247;SDS011;57641;51.416;5.506;2022-08-11T12:23:42;2.90;;;2.35;;
70247;SDS011;57641;51.416;5.506;2022-08-11T12:26:28;3.58;;;2.25;;
70247;SDS011;57641;51.416;5.506;2022-08-11T12:29:23;3.08;;;2.08;;
70247;SDS011;57641;51.416;5.506;2022-08-11T12:31:54;4.47;;;2.42;;
70247;SDS011;57641;51.416;5.506;2022-08-11T12:34:22;3.33;;;2.33;;
70247;SDS011;57641;51.416;5.506;2022-08-11T12:36:58;2.63;;;2.42;;
70247;SDS011;57641;51.416;5.506;2022-08-11T12:39:32;3.42;;;2.58;;
70247;SDS011;57641;51.416;5.506;2022-08-11T12:42:20;3.10;;;2.28;;
70247;SDS011;57641;51.416;5.506;2022-08-11T12:45:09;2.40;;;2.20;;
70247;SDS011;57641;51.416;5.506;2022-08-11T12:50:55;2.70;;;2.40;;
70247;SDS011;57641;51.416;5.506;2022-08-11T12:53:45;3.83;;;2.78;;
70247;SDS011;57641;51.416;5.506;2022-08-11T12:56:18;3.47;;;2.70;;
70247;SDS011;57641;51.416;5.506;2022-08-11T12:59:02;3.20;;;2.20;;
70247;SDS011;57641;51.416;5.506;2022-08-11T13:01:49;3.13;;;2.42;;
70247;SDS011;57641;51.416;5.506;2022-08-11T13:04:34;5.03;;;2.60;;
70247;SDS011;57641;51.416;5.506;2022-08-11T13:07:18;2.70;;;2.38;;
70247;SDS011;57641;51.416;5.506;2022-08-11T13:09:44;2.45;;;2.10;;
70247;SDS011;57641;51.416;5.506;2022-08-11T13:12:10;4.65;;;2.90;;
70247;SDS011;57641;51.416;5.506;2022-08-11T13:14:56;3.67;;;2.08;;
70247;SDS011;57641;51.416;5.506;2022-08-11T13:17:23;6.53;;;2.80;;
70247;SDS011;57641;51.416;5.506;2022-08-11T13:19:50;5.85;;;2.92;;
70247;SDS011;57641;51.416;5.506;2022-08-11T13:22:18;2.92;;;2.58;;
70247;SDS011;57641;51.416;5.506;2022-08-11T13:24:46;3.78;;;2.58;;
70247;SDS011;57641;51.416;5.506;2022-08-11T13:27:15;5.75;;;2.75;;
70247;SDS011;57641;51.416;5.506;2022-08-11T13:29:43;3.55;;;2.42;;
70247;SDS011;57641;51.416;5.506;2022-08-11T13:32:10;3.22;;;2.33;;
70247;SDS011;57641;51.416;5.506;2022-08-11T13:34:38;3.22;;;2.70;;
70247;SDS011;57641;51.416;5.506;2022-08-11T13:37:07;4.65;;;2.63;;
70247;SDS011;57641;51.416;5.506;2022-08-11T13:39:37;2.88;;;2.30;;
70247;SDS011;57641;51.416;5.506;2022-08-11T13:42:11;3.17;;;2.40;;
70247;SDS011;57641;51.416;5.506;2022-08-11T13:44:39;3.45;;;2.70;;
70247;SDS011;57641;51.416;5.506;2022-08-11T13:47:12;3.13;;;2.30;;
70247;SDS011;57641;51.416;5.506;2022-08-11T13:49:40;4.82;;;2.60;;
70247;SDS011;57641;51.416;5.506;2022-08-11T13:52:09;2.70;;;2.30;;
70247;SDS011;57641;51.416;5.506;2022-08-11T13:54:41;3.33;;;2.42;;
70247;SDS011;57641;51.416;5.506;2022-08-11T13:57:08;4.45;;;2.40;;
70247;SDS011;57641;51.416;5.506;2022-08-11T13:59:36;3.28;;;2.20;;
70247;SDS011;57641;51.416;5.506;2022-08-11T14:02:04;4.95;;;2.70;;
70247;SDS011;57641;51.416;5.506;2022-08-11T14:04:40;4.05;;;2.50;;
70247;SDS011;57641;51.416;5.506;2022-08-11T14:07:16;2.55;;;2.25;;
70247;SDS011;57641;51.416;5.506;2022-08-11T14:09:46;4.40;;;2.63;;
70247;SDS011;57641;51.416;5.506;2022-08-11T14:12:23;3.85;;;2.33;;
70247;SDS011;57641;51.416;5.506;2022-08-11T14:15:19;4.72;;;2.30;;
70247;SDS011;57641;51.416;5.506;2022-08-11T14:17:56;3.47;;;2.33;;
70247;SDS011;57641;51.416;5.506;2022-08-11T14:20:27;2.92;;;2.15;;
70247;SDS011;57641;51.416;5.506;2022-08-11T14:23:18;3.58;;;2.13;;
70247;SDS011;57641;51.416;5.506;2022-08-11T14:25:53;2.50;;;2.15;;
70247;SDS011;57641;51.416;5.506;2022-08-11T14:28:38;3.53;;;2.20;;
70247;SDS011;57641;51.416;5.506;2022-08-11T14:31:05;2.40;;;2.20;;
70247;SDS011;57641;51.416;5.506;2022-08-11T14:33:32;3.05;;;2.20;;
70247;SDS011;57641;51.416;5.506;2022-08-11T14:36:00;5.18;;;2.55;;
70247;SDS011;57641;51.416;5.506;2022-08-11T14:38:30;4.47;;;2.28;;
70247;SDS011;57641;51.416;5.506;2022-08-11T14:40:58;2.70;;;1.90;;
70247;SDS011;57641;51.416;5.506;2022-08-11T14:43:44;3.47;;;2.20;;
70247;SDS011;57641;51.416;5.506;2022-08-11T14:46:29;2.95;;;2.30;;
70247;SDS011;57641;51.416;5.506;2022-08-11T14:49:16;2.75;;;2.10;;
70247;SDS011;57641;51.416;5.506;2022-08-11T14:51:41;3.45;;;2.40;;
70247;SDS011;57641;51.416;5.506;2022-08-11T14:54:08;2.35;;;1.85;;
70247;SDS011;57641;51.416;5.506;2022-08-11T14:56:53;3.10;;;2.45;;
70247;SDS011;57641;51.416;5.506;2022-08-11T14:59:20;2.75;;;2.40;;
70247;SDS011;57641;51.416;5.506;2022-08-11T15:01:47;3.55;;;2.65;;
70247;SDS011;57641;51.416;5.506;2022-08-11T15:04:31;2.90;;;2.50;;
70247;SDS011;57641;51.416;5.506;2022-08-11T15:06:58;4.35;;;2.13;;
70247;SDS011;57641;51.416;5.506;2022-08-11T15:09:24;2.80;;;2.50;;
70247;SDS011;57641;51.416;5.506;2022-08-11T15:11:50;3.30;;;2.55;;
70247;SDS011;57641;51.416;5.506;2022-08-11T15:14:40;3.40;;;2.17;;
70247;SDS011;57641;51.416;5.506;2022-08-11T15:17:28;3.28;;;2.60;;
70247;SDS011;57641;51.416;5.506;2022-08-11T15:20:03;5.40;;;2.55;;
70247;SDS011;57641;51.416;5.506;2022-08-11T15:22:49;6.03;;;2.85;;
70247;SDS011;57641;51.416;5.506;2022-08-11T15:25:34;3.38;;;2.25;;
70247;SDS011;57641;51.416;5.506;2022-08-11T15:28:02;4.82;;;2.30;;
70247;SDS011;57641;51.416;5.506;2022-08-11T15:30:53;5.60;;;2.90;;
70247;SDS011;57641;51.416;5.506;2022-08-11T15:33:39;3.65;;;2.60;;
70247;SDS011;57641;51.416;5.506;2022-08-11T15:36:28;4.35;;;2.65;;
70247;SDS011;57641;51.416;5.506;2022-08-11T15:42:08;4.20;;;3.00;;
70247;SDS011;57641;51.416;5.506;2022-08-11T15:44:58;3.65;;;2.63;;
70247;SDS011;57641;51.416;5.506;2022-08-11T15:47:55;4.15;;;2.60;;
70247;SDS011;57641;51.416;5.506;2022-08-11T15:50:27;4.05;;;2.47;;
70247;SDS011;57641;51.416;5.506;2022-08-11T15:52:58;4.28;;;2.58;;
70247;SDS011;57641;51.416;5.506;2022-08-11T15:55:26;3.33;;;2.40;;
70247;SDS011;57641;51.416;5.506;2022-08-11T15:57:55;3.22;;;2.40;;
70247;SDS011;57641;51.416;5.506;2022-08-11T16:00:44;3.70;;;2.40;;
70247;SDS011;57641;51.416;5.506;2022-08-11T16:03:29;3.58;;;2.20;;
70247;SDS011;57641;51.416;5.506;2022-08-11T16:06:18;3.92;;;2.47;;
70247;SDS011;57641;51.416;5.506;2022-08-11T16:08:45;4.32;;;2.50;;
70247;SDS011;57641;51.416;5.506;2022-08-11T16:11:12;2.30;;;2.10;;
70247;SDS011;57641;51.416;5.506;2022-08-11T16:13:39;3.22;;;2.40;;
70247;SDS011;57641;51.416;5.506;2022-08-11T16:16:05;3.17;;;2.38;;
70247;SDS011;57641;51.416;5.506;2022-08-11T16:18:59;2.60;;;2.30;;
70247;SDS011;57641;51.416;5.506;2022-08-11T16:21:33;2.50;;;2.25;;
70247;SDS011;57641;51.416;5.506;2022-08-11T16:24:05;2.28;;;2.05;;
70247;SDS011;57641;51.416;5.506;2022-08-11T16:26:34;3.92;;;2.00;;
70247;SDS011;57641;51.416;5.506;2022-08-11T16:29:03;3.42;;;2.10;;
70247;SDS011;57641;51.416;5.506;2022-08-11T16:31:30;2.13;;;1.92;;
70247;SDS011;57641;51.416;5.506;2022-08-11T16:33:59;3.03;;;1.90;;
70247;SDS011;57641;51.416;5.506;2022-08-11T16:36:26;2.58;;;2.20;;
70247;SDS011;57641;51.416;5.506;2022-08-11T16:39:12;3.72;;;2.03;;
70247;SDS011;57641;51.416;5.506;2022-08-11T16:41:42;4.10;;;2.03;;
70247;SDS011;57641;51.416;5.506;2022-08-11T16:44:28;3.35;;;2.20;;
70247;SDS011;57641;51.416;5.506;2022-08-11T16:47:15;2.55;;;1.98;;
70247;SDS011;57641;51.416;5.506;2022-08-11T16:49:47;6.75;;;2.05;;
70247;SDS011;57641;51.416;5.506;2022-08-11T16:52:17;3.55;;;2.15;;
70247;SDS011;57641;51.416;5.506;2022-08-11T16:54:46;2.95;;;2.00;;
70247;SDS011;57641;51.416;5.506;2022-08-11T16:57:16;3.15;;;2.10;;
70247;SDS011;57641;51.416;5.506;2022-08-11T17:00:04;3.08;;;1.80;;
70247;SDS011;57641;51.416;5.506;2022-08-11T17:02:34;2.10;;;1.83;;
70247;SDS011;57641;51.416;5.506;2022-08-11T17:05:22;2.80;;;1.90;;
70247;SDS011;57641;51.416;5.506;2022-08-11T17:08:08;6.45;;;2.15;;
70247;SDS011;57641;51.416;5.506;2022-08-11T17:13:43;3.53;;;2.25;;
70247;SDS011;57641;51.416;5.506;2022-08-11T17:16:33;2.72;;;2.35;;
70247;SDS011;57641;51.416;5.506;2022-08-11T17:19:10;6.05;;;2.42;;
70247;SDS011;57641;51.416;5.506;2022-08-11T17:21:47;3.15;;;1.98;;
70247;SDS011;57641;51.416;5.506;2022-08-11T17:24:34;2.80;;;2.00;;
70247;SDS011;57641;51.416;5.506;2022-08-11T17:27:03;2.35;;;1.95;;
70247;SDS011;57641;51.416;5.506;2022-08-11T17:29:43;3.38;;;2.15;;
70247;SDS011;57641;51.416;5.506;2022-08-11T17:32:20;3.38;;;2.30;;
70247;SDS011;57641;51.416;5.506;2022-08-11T17:35:11;3.63;;;2.03;;
70247;SDS011;57641;51.416;5.506;2022-08-11T17:37:58;3.20;;;1.90;;
70247;SDS011;57641;51.416;5.506;2022-08-11T17:40:28;3.75;;;2.20;;
70247;SDS011;57641;51.416;5.506;2022-08-11T17:42:56;3.22;;;2.17;;
70247;SDS011;57641;51.416;5.506;2022-08-11T17:45:43;4.75;;;2.00;;
70247;SDS011;57641;51.416;5.506;2022-08-11T17:48:29;7.40;;;2.28;;
70247;SDS011;57641;51.416;5.506;2022-08-11T17:51:02;4.25;;;2.83;;
70247;SDS011;57641;51.416;5.506;2022-08-11T17:53:30;4.57;;;2.00;;
70247;SDS011;57641;51.416;5.506;2022-08-11T17:56:17;2.22;;;2.03;;
70247;SDS011;57641;51.416;5.506;2022-08-11T17:59:04;3.55;;;2.20;;
70247;SDS011;57641;51.416;5.506;2022-08-11T18:01:51;2.55;;;1.83;;
70247;SDS011;57641;51.416;5.506;2022-08-11T18:04:20;3.33;;;2.05;;
70247;SDS011;57641;51.416;5.506;2022-08-11T18:06:48;3.22;;;2.28;;
70247;SDS011;57641;51.416;5.506;2022-08-11T18:09:16;2.10;;;1.90;;
70247;SDS011;57641;51.416;5.506;2022-08-11T18:12:03;4.70;;;2.10;;
70247;SDS011;57641;51.416;5.506;2022-08-11T18:14:50;2.65;;;1.90;;
70247;SDS011;57641;51.416;5.506;2022-08-11T18:17:37;2.15;;;2.00;;
70247;SDS011;57641;51.416;5.506;2022-08-11T18:20:23;2.30;;;2.10;;
70247;SDS011;57641;51.416;5.506;2022-08-11T18:23:14;3.95;;;2.30;;
70247;SDS011;57641;51.416;5.506;2022-08-11T18:26:02;2.65;;;2.05;;
70247;SDS011;57641;51.416;5.506;2022-08-11T18:28:50;2.83;;;2.10;;
70247;SDS011;57641;51.416;5.506;2022-08-11T18:31:41;3.88;;;2.00;;
70247;SDS011;57641;51.416;5.506;2022-08-11T18:34:35;3.25;;;2.33;;
70247;SDS011;57641;51.416;5.506;2022-08-11T18:37:24;3.22;;;2.30;;
70247;SDS011;57641;51.416;5.506;2022-08-11T18:40:18;2.72;;;2.10;;
70247;SDS011;57641;51.416;5.506;2022-08-11T18:43:08;6.78;;;2.08;;
70247;SDS011;57641;51.416;5.506;2022-08-11T18:45:58;2.40;;;2.17;;
70247;SDS011;57641;51.416;5.506;2022-08-11T18:48:49;3.97;;;2.15;;
70247;SDS011;57641;51.416;5.506;2022-08-11T18:51:37;2.70;;;1.80;;
70247;SDS011;57641;51.416;5.506;2022-08-11T18:54:23;3.17;;;1.90;;
70247;SDS011;57641;51.416;5.506;2022-08-11T18:57:09;2.08;;;1.85;;
70247;SDS011;57641;51.416;5.506;2022-08-11T18:59:57;2.67;;;2.13;;
70247;SDS011;57641;51.416;5.506;2022-08-11T19:02:44;3.38;;;2.00;;
70247;SDS011;57641;51.416;5.506;2022-08-11T19:05:30;3.42;;;1.98;;
70247;SDS011;57641;51.416;5.506;2022-08-11T19:08:20;3.92;;;2.10;;
70247;SDS011;57641;51.416;5.506;2022-08-11T19:11:13;4.05;;;2.30;;
70247;SDS011;57641;51.416;5.506;2022-08-11T19:14:00;2.65;;;2.03;;
70247;SDS011;57641;51.416;5.506;2022-08-11T19:16:53;3.40;;;2.10;;
70247;SDS011;57641;51.416;5.506;2022-08-11T19:20:21;3.05;;;2.08;;
70247;SDS011;57641;51.416;5.506;2022-08-11T19:23:35;4.45;;;2.50;;
70247;SDS011;57641;51.416;5.506;2022-08-11T19:26:27;3.92;;;2.47;;
70247;SDS011;57641;51.416;5.506;2022-08-11T19:29:14;6.65;;;2.55;;
70247;SDS011;57641;51.416;5.506;2022-08-11T19:32:01;2.85;;;2.30;;
70247;SDS011;57641;51.416;5.506;2022-08-11T19:34:46;2.33;;;2.13;;
70247;SDS011;57641;51.416;5.506;2022-08-11T19:37:39;3.75;;;2.35;;
70247;SDS011;57641;51.416;5.506;2022-08-11T19:40:26;3.63;;;2.60;;
70247;SDS011;57641;51.416;5.506;2022-08-11T19:43:11;5.40;;;2.40;;
70247;SDS011;57641;51.416;5.506;2022-08-11T19:45:59;3.28;;;2.38;;
70247;SDS011;57641;51.416;5.506;2022-08-11T19:48:45;3.47;;;2.63;;
70247;SDS011;57641;51.416;5.506;2022-08-11T19:51:35;3.45;;;2.30;;
70247;SDS011;57641;51.416;5.506;2022-08-11T19:54:24;4.72;;;2.50;;
70247;SDS011;57641;51.416;5.506;2022-08-11T19:57:10;4.45;;;2.60;;
70247;SDS011;57641;51.416;5.506;2022-08-11T19:59:57;6.50;;;2.88;;